createdAt,value
2018-11-11T00:00:00.057Z,0.00
2018-11-11T00:00:59.977Z,0.00
2018-11-11T00:01:59.901Z,0.00
2018-11-11T00:02:59.826Z,0.00
2018-11-11T00:03:59.750Z,0.00
2018-11-11T00:04:59.674Z,0.00
2018-11-11T00:05:59.601Z,0.00
2018-11-11T00:06:59.525Z,0.00
2018-11-11T00:07:59.448Z,0.00
2018-11-11T00:08:59.372Z,0.00
2018-11-11T00:09:59.298Z,0.00
2018-11-11T00:10:59.225Z,0.00
2018-11-11T00:11:59.145Z,0.00
2018-11-11T00:12:59.070Z,0.00
2018-11-11T00:13:58.996Z,0.00
2018-11-11T00:14:58.921Z,0.00
2018-11-11T00:15:58.848Z,0.00
2018-11-11T00:16:58.769Z,0.00
2018-11-11T00:17:58.692Z,0.00
2018-11-11T00:18:58.619Z,0.00
2018-11-11T00:19:58.542Z,0.00
2018-11-11T00:20:58.465Z,0.00
2018-11-11T00:21:58.392Z,0.00
2018-11-11T00:22:58.317Z,0.00
2018-11-11T00:23:58.240Z,0.00
2018-11-11T00:24:58.165Z,0.00
2018-11-11T00:25:58.089Z,0.00
2018-11-11T00:26:58.013Z,0.00
2018-11-11T00:27:57.937Z,0.00
2018-11-11T00:28:57.861Z,0.00
2018-11-11T00:29:57.791Z,0.00
2018-11-11T00:30:57.712Z,0.00
2018-11-11T00:31:57.636Z,0.00
2018-11-11T00:32:57.559Z,0.00
2018-11-11T00:33:57.485Z,0.00
2018-11-11T00:34:57.409Z,0.00
2018-11-11T00:35:57.333Z,0.00
2018-11-11T00:36:57.257Z,0.00
2018-11-11T00:37:57.182Z,0.00
2018-11-11T00:38:57.108Z,0.00
2018-11-11T00:39:57.031Z,0.00
2018-11-11T00:40:56.956Z,0.00
2018-11-11T00:41:56.880Z,0.00
2018-11-11T00:42:56.804Z,0.00
2018-11-11T00:43:56.727Z,0.00
2018-11-11T00:44:56.656Z,0.00
2018-11-11T00:45:56.577Z,0.00
2018-11-11T00:46:56.502Z,0.00
2018-11-11T00:47:56.426Z,0.00
2018-11-11T00:48:56.349Z,0.00
2018-11-11T00:49:56.275Z,0.00
2018-11-11T00:50:56.198Z,0.00
2018-11-11T00:51:56.123Z,0.00
2018-11-11T00:52:56.047Z,0.00
2018-11-11T00:53:55.971Z,0.00
2018-11-11T00:54:55.895Z,0.00
2018-11-11T00:55:55.820Z,0.00
2018-11-11T00:56:55.747Z,0.00
2018-11-11T00:57:55.667Z,0.00
2018-11-11T00:58:55.593Z,0.00
2018-11-11T00:59:55.517Z,0.00
2018-11-11T01:00:55.442Z,0.00
2018-11-11T01:01:55.367Z,0.00
2018-11-11T01:02:55.294Z,0.00
2018-11-11T01:03:55.215Z,0.00
2018-11-11T01:04:55.139Z,0.00
2018-11-11T01:05:55.065Z,0.00
2018-11-11T01:06:54.989Z,0.00
2018-11-11T01:07:54.912Z,0.00
2018-11-11T01:08:54.835Z,0.00
2018-11-11T01:09:54.761Z,0.00
2018-11-11T01:10:54.687Z,0.00
2018-11-11T01:11:54.612Z,0.00
2018-11-11T01:12:54.534Z,0.00
2018-11-11T01:13:54.460Z,0.00
2018-11-11T01:14:54.382Z,0.00
2018-11-11T01:15:54.305Z,0.00
2018-11-11T01:16:54.232Z,0.00
2018-11-11T01:17:54.156Z,0.00
2018-11-11T01:18:54.131Z,0.00
2018-11-11T01:19:54.004Z,0.00
2018-11-11T01:20:53.928Z,0.00
2018-11-11T01:21:53.853Z,0.00
2018-11-11T01:22:53.777Z,0.00
2018-11-11T01:23:53.701Z,0.00
2018-11-11T01:24:53.726Z,0.00
2018-11-11T01:25:53.552Z,0.00
2018-11-11T01:26:53.477Z,0.00
2018-11-11T01:27:53.400Z,0.00
2018-11-11T01:28:53.326Z,0.00
2018-11-11T01:29:53.250Z,0.00
2018-11-11T01:30:53.175Z,0.00
2018-11-11T01:31:53.099Z,0.00
2018-11-11T01:32:53.023Z,0.00
2018-11-11T01:33:52.948Z,0.00
2018-11-11T01:34:52.924Z,0.00
2018-11-11T01:35:52.796Z,0.00
2018-11-11T01:36:52.721Z,0.00
2018-11-11T01:37:52.646Z,0.00
2018-11-11T01:38:52.573Z,0.00
2018-11-11T01:39:52.545Z,0.00
2018-11-11T01:40:52.423Z,0.00
2018-11-11T01:41:52.345Z,0.00
2018-11-11T01:42:52.271Z,0.00
2018-11-11T01:43:52.192Z,0.00
2018-11-11T01:44:52.117Z,0.00
2018-11-11T01:45:52.041Z,0.00
2018-11-11T01:46:51.966Z,0.00
2018-11-11T01:47:51.892Z,0.00
2018-11-11T01:48:51.814Z,0.00
2018-11-11T01:49:51.739Z,0.00
2018-11-11T01:50:51.663Z,0.00
2018-11-11T01:51:51.591Z,0.00
2018-11-11T01:52:51.515Z,0.00
2018-11-11T01:53:51.437Z,0.00
2018-11-11T01:54:51.364Z,0.00
2018-11-11T01:55:51.285Z,0.00
2018-11-11T01:56:51.210Z,0.00
2018-11-11T01:57:51.135Z,0.00
2018-11-11T01:58:51.059Z,0.00
2018-11-11T01:59:50.985Z,0.00
2018-11-11T02:00:50.912Z,0.00
2018-11-11T02:01:50.833Z,0.00
2018-11-11T02:02:50.756Z,0.00
2018-11-11T02:03:50.680Z,0.00
2018-11-11T02:04:50.606Z,0.00
2018-11-11T02:05:50.530Z,0.00
2018-11-11T02:06:50.456Z,0.00
2018-11-11T02:07:50.384Z,0.00
2018-11-11T02:08:50.303Z,0.00
2018-11-11T02:09:50.283Z,0.00
2018-11-11T02:10:50.158Z,0.00
2018-11-11T02:11:50.127Z,0.00
2018-11-11T02:12:50.002Z,0.00
2018-11-11T02:13:49.925Z,0.00
2018-11-11T02:14:49.852Z,0.00
2018-11-11T02:15:49.775Z,0.00
2018-11-11T02:16:49.699Z,0.00
2018-11-11T02:17:49.674Z,0.00
2018-11-11T02:18:49.549Z,0.00
2018-11-11T02:19:49.472Z,0.00
2018-11-11T02:20:49.426Z,0.00
2018-11-11T02:21:49.321Z,0.00
2018-11-11T02:22:49.253Z,0.00
2018-11-11T02:23:49.169Z,0.00
2018-11-11T02:24:49.093Z,0.00
2018-11-11T02:25:49.019Z,0.00
2018-11-11T02:26:48.943Z,0.00
2018-11-11T02:27:48.866Z,0.00
2018-11-11T02:28:48.788Z,0.00
2018-11-11T02:29:48.712Z,0.00
2018-11-11T02:30:48.638Z,0.00
2018-11-11T02:31:48.563Z,0.00
2018-11-11T02:32:48.486Z,0.00
2018-11-11T02:33:48.410Z,0.00
2018-11-11T02:34:48.335Z,0.00
2018-11-11T02:35:48.259Z,0.00
2018-11-11T02:36:48.185Z,0.00
2018-11-11T02:37:48.109Z,0.00
2018-11-11T02:38:48.031Z,0.00
2018-11-11T02:39:48.005Z,0.00
2018-11-11T02:40:47.880Z,0.00
2018-11-11T02:41:47.803Z,0.00
2018-11-11T02:42:47.730Z,0.00
2018-11-11T02:43:47.655Z,0.00
2018-11-11T02:44:47.677Z,0.00
2018-11-11T02:45:47.500Z,0.00
2018-11-11T02:46:47.425Z,0.00
2018-11-11T02:47:47.351Z,0.00
2018-11-11T02:48:47.273Z,0.00
2018-11-11T02:49:47.200Z,0.00
2018-11-11T02:50:47.372Z,0.00
2018-11-11T02:51:47.045Z,0.00
2018-11-11T02:52:46.970Z,0.00
2018-11-11T02:53:46.895Z,0.00
2018-11-11T02:54:46.818Z,0.00
2018-11-11T02:55:46.742Z,0.00
2018-11-11T02:56:46.666Z,0.00
2018-11-11T02:57:46.598Z,0.00
2018-11-11T02:58:46.514Z,0.00
2018-11-11T02:59:46.437Z,0.00
2018-11-11T03:00:46.612Z,0.00
2018-11-11T03:01:46.285Z,0.00
2018-11-11T03:02:46.210Z,0.00
2018-11-11T03:03:46.133Z,0.00
2018-11-11T03:04:46.058Z,0.00
2018-11-11T03:05:45.981Z,0.00
2018-11-11T03:06:45.906Z,0.00
2018-11-11T03:07:45.828Z,0.00
2018-11-11T03:08:45.753Z,0.00
2018-11-11T03:09:45.676Z,0.00
2018-11-11T03:10:45.658Z,0.00
2018-11-11T03:11:45.524Z,0.00
2018-11-11T03:12:45.448Z,0.00
2018-11-11T03:13:45.388Z,0.00
2018-11-11T03:14:45.296Z,0.00
2018-11-11T03:15:45.219Z,0.00
2018-11-11T03:16:45.199Z,0.00
2018-11-11T03:17:45.067Z,0.00
2018-11-11T03:18:44.991Z,0.00
2018-11-11T03:19:44.914Z,0.00
2018-11-11T03:20:44.842Z,0.00
2018-11-11T03:21:44.812Z,0.00
2018-11-11T03:22:44.688Z,0.00
2018-11-11T03:23:44.610Z,0.00
2018-11-11T03:24:44.534Z,0.00
2018-11-11T03:25:44.457Z,0.00
2018-11-11T03:26:44.432Z,0.00
2018-11-11T03:27:44.305Z,0.00
2018-11-11T03:28:44.229Z,0.00
2018-11-11T03:29:44.153Z,0.00
2018-11-11T03:30:44.084Z,0.00
2018-11-11T03:31:44.007Z,0.00
2018-11-11T03:32:43.924Z,0.00
2018-11-11T03:33:43.849Z,0.00
2018-11-11T03:34:43.771Z,0.00
2018-11-11T03:35:43.699Z,0.00
2018-11-11T03:36:43.618Z,0.00
2018-11-11T03:37:43.546Z,0.00
2018-11-11T03:38:43.470Z,0.00
2018-11-11T03:39:43.390Z,0.00
2018-11-11T03:40:43.314Z,0.00
2018-11-11T03:41:43.238Z,0.00
2018-11-11T03:42:43.262Z,0.00
2018-11-11T03:43:43.085Z,0.00
2018-11-11T03:44:43.008Z,0.00
2018-11-11T03:45:42.932Z,0.00
2018-11-11T03:46:42.856Z,0.00
2018-11-11T03:47:43.029Z,0.00
2018-11-11T03:48:42.702Z,0.00
2018-11-11T03:49:42.625Z,0.00
2018-11-11T03:50:42.581Z,0.00
2018-11-11T03:51:42.472Z,0.00
2018-11-11T03:52:42.396Z,0.00
2018-11-11T03:53:42.319Z,0.00
2018-11-11T03:54:42.243Z,0.00
2018-11-11T03:55:42.167Z,0.00
2018-11-11T03:56:42.090Z,0.00
2018-11-11T03:57:42.263Z,0.00
2018-11-11T03:58:42.030Z,0.00
2018-11-11T03:59:41.859Z,0.00
2018-11-11T04:00:41.783Z,0.00
2018-11-11T04:01:41.707Z,0.00
2018-11-11T04:02:41.630Z,0.00
2018-11-11T04:03:41.557Z,0.00
2018-11-11T04:04:41.477Z,0.00
2018-11-11T04:05:41.405Z,0.00
2018-11-11T04:06:41.325Z,0.00
2018-11-11T04:07:41.246Z,0.00
2018-11-11T04:08:41.171Z,0.00
2018-11-11T04:09:41.094Z,0.00
2018-11-11T04:10:41.018Z,0.00
2018-11-11T04:11:40.940Z,0.00
2018-11-11T04:12:40.862Z,0.00
2018-11-11T04:13:40.840Z,0.00
2018-11-11T04:14:40.710Z,0.00
2018-11-11T04:15:40.632Z,0.00
2018-11-11T04:16:40.555Z,0.00
2018-11-11T04:17:40.479Z,0.00
2018-11-11T04:18:40.402Z,0.00
2018-11-11T04:19:40.324Z,0.00
2018-11-11T04:20:40.251Z,0.00
2018-11-11T04:21:40.172Z,0.00
2018-11-11T04:22:40.095Z,0.00
2018-11-11T04:23:40.019Z,0.00
2018-11-11T04:24:40.041Z,0.00
2018-11-11T04:25:39.865Z,0.00
2018-11-11T04:26:39.837Z,0.00
2018-11-11T04:27:39.709Z,0.00
2018-11-11T04:28:39.633Z,0.00
2018-11-11T04:29:39.555Z,0.00
2018-11-11T04:30:39.478Z,0.00
2018-11-11T04:31:39.400Z,0.00
2018-11-11T04:32:39.324Z,0.00
2018-11-11T04:33:39.249Z,0.00
2018-11-11T04:34:39.171Z,0.00
2018-11-11T04:35:39.095Z,0.00
2018-11-11T04:36:39.017Z,0.00
2018-11-11T04:37:38.941Z,0.00
2018-11-11T04:38:38.864Z,0.00
2018-11-11T04:39:38.824Z,0.00
2018-11-11T04:40:38.709Z,0.00
2018-11-11T04:41:38.633Z,0.00
2018-11-11T04:42:38.555Z,0.00
2018-11-11T04:43:38.478Z,0.00
2018-11-11T04:44:38.401Z,0.00
2018-11-11T04:45:38.324Z,0.00
2018-11-11T04:46:38.248Z,0.00
2018-11-11T04:47:38.169Z,0.00
2018-11-11T04:48:38.092Z,0.00
2018-11-11T04:49:38.015Z,0.00
2018-11-11T04:50:37.941Z,0.00
2018-11-11T04:51:37.962Z,0.00
2018-11-11T04:52:37.785Z,0.00
2018-11-11T04:53:37.707Z,0.00
2018-11-11T04:54:37.630Z,0.00
2018-11-11T04:55:37.552Z,0.00
2018-11-11T04:56:37.475Z,0.00
2018-11-11T04:57:37.397Z,0.00
2018-11-11T04:58:37.326Z,0.00
2018-11-11T04:59:37.242Z,0.00
2018-11-11T05:00:37.170Z,0.00
2018-11-11T05:01:37.167Z,0.00
2018-11-11T05:02:37.013Z,0.00
2018-11-11T05:03:36.933Z,0.00
2018-11-11T05:04:36.898Z,0.00
2018-11-11T05:05:36.779Z,0.00
2018-11-11T05:06:36.703Z,0.00
2018-11-11T05:07:36.625Z,0.00
2018-11-11T05:08:36.548Z,0.00
2018-11-11T05:09:36.471Z,0.00
2018-11-11T05:10:36.393Z,0.00
2018-11-11T05:11:36.316Z,0.00
2018-11-11T05:12:36.237Z,0.00
2018-11-11T05:13:36.162Z,0.00
2018-11-11T05:14:36.083Z,0.00
2018-11-11T05:15:36.009Z,0.00
2018-11-11T05:16:35.929Z,0.00
2018-11-11T05:17:35.852Z,0.00
2018-11-11T05:18:35.775Z,0.00
2018-11-11T05:19:35.698Z,0.00
2018-11-11T05:20:35.621Z,0.00
2018-11-11T05:21:35.544Z,0.00
2018-11-11T05:22:35.466Z,0.00
2018-11-11T05:23:35.388Z,0.00
2018-11-11T05:24:35.312Z,0.00
2018-11-11T05:25:35.234Z,0.00
2018-11-11T05:26:35.157Z,0.00
2018-11-11T05:27:35.081Z,0.00
2018-11-11T05:28:35.002Z,0.00
2018-11-11T05:29:34.926Z,0.00
2018-11-11T05:30:34.849Z,0.00
2018-11-11T05:31:34.773Z,0.00
2018-11-11T05:32:34.694Z,0.00
2018-11-11T05:33:34.619Z,0.00
2018-11-11T05:34:34.548Z,0.00
2018-11-11T05:35:34.469Z,0.00
2018-11-11T05:36:34.387Z,0.00
2018-11-11T05:37:34.310Z,0.00
2018-11-11T05:38:34.234Z,0.00
2018-11-11T05:39:34.156Z,0.00
2018-11-11T05:40:34.079Z,0.00
2018-11-11T05:41:34.003Z,0.00
2018-11-11T05:42:33.925Z,0.00
2018-11-11T05:43:33.849Z,0.00
2018-11-11T05:44:33.770Z,0.00
2018-11-11T05:45:33.694Z,0.00
2018-11-11T05:46:33.616Z,0.00
2018-11-11T05:47:33.540Z,0.00
2018-11-11T05:48:33.463Z,0.00
2018-11-11T05:49:33.485Z,0.00
2018-11-11T05:50:33.311Z,0.00
2018-11-11T05:51:33.232Z,0.00
2018-11-11T05:52:33.156Z,0.00
2018-11-11T05:53:33.086Z,0.00
2018-11-11T05:54:33.002Z,0.00
2018-11-11T05:55:32.925Z,0.00
2018-11-11T05:56:32.849Z,0.00
2018-11-11T05:57:32.770Z,0.00
2018-11-11T05:58:32.695Z,0.00
2018-11-11T05:59:32.617Z,0.00
2018-11-11T06:00:32.791Z,0.00
2018-11-11T06:01:32.464Z,0.00
2018-11-11T06:02:32.389Z,0.00
2018-11-11T06:03:32.310Z,0.00
2018-11-11T06:04:32.234Z,0.00
2018-11-11T06:05:32.157Z,0.00
2018-11-11T06:06:32.083Z,0.00
2018-11-11T06:07:32.009Z,0.00
2018-11-11T06:08:31.928Z,0.00
2018-11-11T06:09:31.852Z,0.00
2018-11-11T06:10:31.778Z,0.00
2018-11-11T06:11:31.799Z,0.00
2018-11-11T06:12:31.627Z,0.00
2018-11-11T06:13:31.547Z,0.00
2018-11-11T06:14:31.470Z,0.00
2018-11-11T06:15:31.395Z,0.00
2018-11-11T06:16:31.319Z,0.00
2018-11-11T06:17:31.241Z,0.00
2018-11-11T06:18:31.165Z,0.00
2018-11-11T06:19:31.090Z,0.00
2018-11-11T06:20:31.014Z,0.00
2018-11-11T06:21:30.936Z,0.00
2018-11-11T06:22:30.860Z,0.00
2018-11-11T06:23:30.784Z,0.00
2018-11-11T06:24:30.711Z,0.00
2018-11-11T06:25:30.656Z,0.00
2018-11-11T06:26:30.557Z,0.00
2018-11-11T06:27:30.496Z,0.00
2018-11-11T06:28:30.404Z,0.00
2018-11-11T06:29:30.327Z,0.00
2018-11-11T06:30:30.252Z,0.00
2018-11-11T06:31:30.174Z,0.00
2018-11-11T06:32:30.099Z,0.00
2018-11-11T06:33:30.022Z,0.00
2018-11-11T06:34:29.946Z,0.00
2018-11-11T06:35:29.869Z,0.00
2018-11-11T06:36:29.793Z,0.00
2018-11-11T06:37:29.716Z,0.00
2018-11-11T06:38:29.641Z,0.00
2018-11-11T06:39:29.563Z,0.00
2018-11-11T06:40:29.487Z,0.00
2018-11-11T06:41:29.411Z,0.00
2018-11-11T06:42:29.335Z,0.00
2018-11-11T06:43:29.257Z,0.00
2018-11-11T06:44:29.182Z,0.00
2018-11-11T06:45:29.106Z,0.00
2018-11-11T06:46:29.029Z,0.00
2018-11-11T06:47:28.954Z,0.00
2018-11-11T06:48:28.876Z,0.00
2018-11-11T06:49:28.805Z,0.00
2018-11-11T06:50:28.727Z,0.00
2018-11-11T06:51:28.646Z,0.00
2018-11-11T06:52:28.569Z,0.00
2018-11-11T06:53:28.497Z,5.63
2018-11-11T06:54:28.518Z,5.63
2018-11-11T06:55:28.339Z,5.63
2018-11-11T06:56:28.264Z,5.63
2018-11-11T06:57:28.187Z,5.63
2018-11-11T06:58:28.112Z,5.63
2018-11-11T06:59:28.034Z,5.63
2018-11-11T07:00:27.959Z,5.63
2018-11-11T07:01:27.881Z,11.25
2018-11-11T07:02:27.806Z,11.25
2018-11-11T07:03:27.726Z,16.88
2018-11-11T07:04:27.653Z,16.88
2018-11-11T07:05:27.574Z,22.50
2018-11-11T07:07:27.484Z,28.13
2018-11-11T07:08:27.343Z,39.38
2018-11-11T07:09:27.266Z,45.00
2018-11-11T07:10:27.191Z,45.00
2018-11-11T07:11:27.114Z,39.38
2018-11-11T07:12:27.036Z,45.00
2018-11-11T07:13:26.961Z,45.00
2018-11-11T07:14:26.884Z,39.38
2018-11-11T07:15:26.806Z,39.38
2018-11-11T07:16:26.730Z,45.00
2018-11-11T07:17:26.652Z,50.63
2018-11-11T07:18:26.577Z,56.25
2018-11-11T07:19:26.498Z,73.13
2018-11-11T07:20:26.424Z,84.38
2018-11-11T07:21:26.345Z,95.63
2018-11-11T07:22:26.269Z,106.88
2018-11-11T07:23:26.198Z,101.25
2018-11-11T07:24:26.118Z,90.00
2018-11-11T07:25:26.039Z,90.00
2018-11-11T07:26:25.964Z,90.00
2018-11-11T07:27:25.885Z,90.00
2018-11-11T07:28:25.809Z,84.38
2018-11-11T07:29:25.732Z,90.00
2018-11-11T07:30:25.657Z,90.00
2018-11-11T07:31:25.602Z,84.38
2018-11-11T07:32:25.500Z,78.75
2018-11-11T07:33:25.426Z,78.75
2018-11-11T07:34:25.351Z,84.38
2018-11-11T07:35:25.272Z,90.00
2018-11-11T07:36:25.196Z,84.38
2018-11-11T07:37:25.122Z,84.38
2018-11-11T07:38:25.043Z,84.38
2018-11-11T07:39:24.967Z,73.13
2018-11-11T07:40:24.890Z,67.50
2018-11-11T07:41:24.814Z,67.50
2018-11-11T07:42:24.818Z,67.50
2018-11-11T07:43:24.662Z,67.50
2018-11-11T07:44:24.585Z,73.13
2018-11-11T07:45:24.510Z,73.13
2018-11-11T07:46:24.433Z,73.13
2018-11-11T07:47:24.356Z,78.75
2018-11-11T07:48:24.277Z,78.75
2018-11-11T07:49:24.202Z,78.75
2018-11-11T07:50:24.125Z,78.75
2018-11-11T07:51:24.049Z,84.38
2018-11-11T07:52:23.973Z,84.38
2018-11-11T07:53:23.898Z,84.38
2018-11-11T07:54:23.819Z,84.38
2018-11-11T07:55:23.746Z,84.38
2018-11-11T07:56:23.665Z,90.00
2018-11-11T07:57:23.589Z,90.00
2018-11-11T07:58:23.542Z,90.00
2018-11-11T07:59:23.435Z,95.63
2018-11-11T08:00:23.358Z,95.63
2018-11-11T08:01:23.287Z,95.63
2018-11-11T08:02:23.205Z,95.63
2018-11-11T08:03:23.128Z,95.63
2018-11-11T08:04:23.052Z,101.25
2018-11-11T08:05:22.974Z,101.25
2018-11-11T08:06:22.898Z,101.25
2018-11-11T08:07:22.823Z,101.25
2018-11-11T08:08:22.743Z,101.25
2018-11-11T08:09:22.666Z,101.25
2018-11-11T08:10:22.593Z,106.88
2018-11-11T08:11:22.517Z,106.88
2018-11-11T08:12:22.436Z,106.88
2018-11-11T08:13:22.358Z,106.88
2018-11-11T08:14:22.291Z,106.88
2018-11-11T08:15:22.213Z,106.88
2018-11-11T08:16:22.130Z,106.88
2018-11-11T08:17:22.057Z,112.50
2018-11-11T08:18:21.976Z,112.50
2018-11-11T08:19:21.899Z,112.50
2018-11-11T08:20:21.823Z,112.50
2018-11-11T08:21:21.748Z,112.50
2018-11-11T08:22:21.671Z,112.50
2018-11-11T08:23:21.591Z,112.50
2018-11-11T08:24:21.515Z,112.50
2018-11-11T08:25:21.529Z,112.50
2018-11-11T08:26:21.361Z,112.50
2018-11-11T08:27:21.288Z,112.50
2018-11-11T08:28:21.210Z,112.50
2018-11-11T08:29:21.131Z,112.50
2018-11-11T08:30:21.055Z,123.75
2018-11-11T08:31:20.979Z,118.13
2018-11-11T08:32:21.046Z,112.50
2018-11-11T08:33:20.825Z,118.13
2018-11-11T08:34:20.756Z,123.75
2018-11-11T08:35:20.672Z,135.00
2018-11-11T08:36:20.598Z,151.88
2018-11-11T08:37:20.524Z,140.63
2018-11-11T08:38:20.444Z,140.63
2018-11-11T08:39:20.367Z,140.63
2018-11-11T08:40:20.316Z,151.88
2018-11-11T08:41:20.215Z,168.75
2018-11-11T08:42:20.140Z,146.25
2018-11-11T08:43:20.063Z,123.75
2018-11-11T08:44:19.987Z,129.38
2018-11-11T08:45:19.911Z,146.25
2018-11-11T08:46:19.835Z,140.63
2018-11-11T08:47:19.761Z,135.00
2018-11-11T08:48:19.828Z,135.00
2018-11-11T08:49:19.609Z,135.00
2018-11-11T08:50:19.535Z,129.38
2018-11-11T08:51:19.456Z,129.38
2018-11-11T08:52:19.381Z,135.00
2018-11-11T08:53:19.334Z,129.38
2018-11-11T08:54:19.231Z,129.38
2018-11-11T08:55:19.156Z,129.38
2018-11-11T08:56:19.084Z,129.38
2018-11-11T08:57:19.004Z,129.38
2018-11-11T08:58:18.931Z,129.38
2018-11-11T08:59:18.852Z,140.63
2018-11-11T09:00:18.779Z,135.00
2018-11-11T09:01:18.701Z,129.38
2018-11-11T09:02:18.626Z,140.63
2018-11-11T09:03:18.550Z,129.38
2018-11-11T09:04:18.577Z,140.63
2018-11-11T09:05:18.399Z,140.63
2018-11-11T09:06:18.324Z,157.50
2018-11-11T09:07:18.247Z,180.00
2018-11-11T09:08:18.173Z,135.00
2018-11-11T09:09:18.098Z,191.25
2018-11-11T09:10:18.021Z,208.13
2018-11-11T09:11:17.991Z,180.00
2018-11-11T09:12:17.869Z,146.25
2018-11-11T09:13:17.795Z,135.00
2018-11-11T09:14:17.717Z,135.00
2018-11-11T09:15:17.641Z,146.25
2018-11-11T09:16:17.565Z,146.25
2018-11-11T09:17:17.559Z,180.00
2018-11-11T09:18:17.414Z,168.75
2018-11-11T09:19:17.339Z,174.38
2018-11-11T09:20:17.262Z,180.00
2018-11-11T09:21:17.220Z,168.75
2018-11-11T09:22:17.113Z,191.25
2018-11-11T09:23:17.034Z,191.25
2018-11-11T09:24:16.962Z,180.00
2018-11-11T09:25:16.913Z,151.88
2018-11-11T09:26:16.809Z,163.13
2018-11-11T09:27:16.733Z,157.50
2018-11-11T09:28:16.661Z,157.50
2018-11-11T09:29:16.587Z,151.88
2018-11-11T09:30:16.557Z,151.88
2018-11-11T09:31:16.431Z,146.25
2018-11-11T09:32:16.354Z,146.25
2018-11-11T09:33:16.279Z,146.25
2018-11-11T09:34:16.204Z,151.88
2018-11-11T09:35:16.141Z,151.88
2018-11-11T09:36:16.052Z,151.88
2018-11-11T09:37:15.977Z,151.88
2018-11-11T09:38:15.904Z,151.88
2018-11-11T09:39:15.877Z,151.88
2018-11-11T09:40:15.749Z,151.88
2018-11-11T09:41:15.674Z,151.88
2018-11-11T09:42:15.643Z,151.88
2018-11-11T09:43:15.524Z,151.88
2018-11-11T09:44:15.452Z,163.13
2018-11-11T09:45:15.372Z,157.50
2018-11-11T09:46:15.299Z,163.13
2018-11-11T09:47:15.221Z,163.13
2018-11-11T09:48:15.148Z,163.13
2018-11-11T09:49:15.071Z,163.13
2018-11-11T09:50:15.000Z,174.38
2018-11-11T09:51:14.920Z,191.25
2018-11-11T09:52:14.845Z,185.63
2018-11-11T09:53:14.770Z,174.38
2018-11-11T09:54:14.733Z,168.75
2018-11-11T09:55:14.626Z,168.75
2018-11-11T09:56:14.544Z,168.75
2018-11-11T09:57:14.469Z,174.38
2018-11-11T09:58:14.395Z,163.13
2018-11-11T09:59:14.319Z,163.13
2018-11-11T10:00:14.245Z,163.13
2018-11-11T10:01:14.173Z,163.13
2018-11-11T10:02:14.100Z,163.13
2018-11-11T10:03:14.020Z,163.13
2018-11-11T10:04:13.947Z,163.13
2018-11-11T10:05:13.871Z,180.00
2018-11-11T10:06:13.841Z,185.63
2018-11-11T10:07:13.822Z,180.00
2018-11-11T10:08:13.646Z,185.63
2018-11-11T10:09:13.572Z,247.50
2018-11-11T10:10:13.497Z,315.00
2018-11-11T10:11:13.424Z,309.38
2018-11-11T10:12:13.352Z,388.13
2018-11-11T10:13:13.278Z,399.38
2018-11-11T10:14:13.200Z,354.38
2018-11-11T10:15:13.126Z,416.25
2018-11-11T10:16:13.051Z,444.38
2018-11-11T10:17:12.979Z,376.88
2018-11-11T10:18:13.005Z,365.63
2018-11-11T10:19:12.833Z,382.50
2018-11-11T10:20:12.828Z,315.00
2018-11-11T10:21:12.685Z,309.38
2018-11-11T10:22:12.612Z,444.38
2018-11-11T10:23:12.538Z,506.25
2018-11-11T10:24:12.466Z,421.88
2018-11-11T10:25:12.395Z,393.75
2018-11-11T10:26:12.323Z,405.00
2018-11-11T10:27:12.328Z,495.00
2018-11-11T10:28:12.177Z,455.63
2018-11-11T10:29:12.196Z,388.13
2018-11-11T10:30:12.034Z,371.25
2018-11-11T10:31:11.963Z,393.75
2018-11-11T10:32:11.891Z,466.88
2018-11-11T10:33:11.822Z,495.00
2018-11-11T10:34:11.750Z,450.00
2018-11-11T10:35:11.677Z,399.38
2018-11-11T10:36:11.608Z,331.88
2018-11-11T10:37:11.585Z,371.25
2018-11-11T10:38:11.466Z,371.25
2018-11-11T10:39:11.508Z,331.88
2018-11-11T10:40:11.325Z,309.38
2018-11-11T10:41:11.255Z,303.75
2018-11-11T10:42:11.182Z,298.13
2018-11-11T10:43:11.111Z,309.38
2018-11-11T10:44:11.057Z,309.38
2018-11-11T10:45:10.972Z,298.13
2018-11-11T10:46:10.900Z,281.25
2018-11-11T10:47:10.829Z,247.50
2018-11-11T10:48:10.757Z,247.50
2018-11-11T10:49:10.686Z,264.38
2018-11-11T10:50:10.616Z,264.38
2018-11-11T10:51:10.546Z,258.75
2018-11-11T10:52:10.473Z,270.00
2018-11-11T10:53:10.401Z,258.75
2018-11-11T10:54:10.398Z,247.50
2018-11-11T10:55:10.259Z,253.13
2018-11-11T10:56:10.189Z,253.13
2018-11-11T10:57:10.117Z,253.13
2018-11-11T10:58:10.056Z,241.88
2018-11-11T10:59:09.973Z,258.75
2018-11-11T11:00:09.929Z,309.38
2018-11-11T11:01:09.832Z,337.50
2018-11-11T11:02:09.759Z,365.63
2018-11-11T11:03:09.687Z,427.50
2018-11-11T11:04:09.615Z,461.25
2018-11-11T11:05:09.546Z,455.63
2018-11-11T11:06:09.552Z,410.63
2018-11-11T11:07:09.401Z,416.25
2018-11-11T11:08:09.330Z,478.13
2018-11-11T11:09:09.258Z,495.00
2018-11-11T11:10:09.187Z,523.13
2018-11-11T11:11:09.114Z,517.50
2018-11-11T11:12:09.044Z,646.88
2018-11-11T11:13:09.015Z,815.63
2018-11-11T11:14:08.901Z,798.75
2018-11-11T11:15:08.832Z,776.25
2018-11-11T11:16:08.758Z,646.88
2018-11-11T11:17:08.688Z,551.25
2018-11-11T11:18:08.617Z,624.38
2018-11-11T11:19:08.550Z,680.63
2018-11-11T11:20:08.475Z,765.00
2018-11-11T11:21:08.408Z,1136.25
2018-11-11T11:22:08.335Z,1321.88
2018-11-11T11:23:08.353Z,1372.50
2018-11-11T11:24:08.244Z,1541.25
2018-11-11T11:25:08.127Z,1608.75
2018-11-11T11:26:08.061Z,1636.88
2018-11-11T11:27:08.007Z,1710.00
2018-11-11T11:28:07.921Z,1597.50
2018-11-11T11:29:07.848Z,1749.38
2018-11-11T11:30:07.781Z,1569.38
2018-11-11T11:31:07.713Z,1383.75
2018-11-11T11:32:07.678Z,2053.13
2018-11-11T11:33:07.575Z,1507.50
2018-11-11T11:34:07.508Z,2221.88
2018-11-11T11:35:07.460Z,2193.75
2018-11-11T11:36:07.471Z,2210.63
2018-11-11T11:37:07.303Z,2300.63
2018-11-11T11:38:07.294Z,2396.25
2018-11-11T11:39:07.167Z,2458.13
2018-11-11T11:40:07.099Z,2210.63
2018-11-11T11:41:07.086Z,2379.38
2018-11-11T11:42:06.971Z,2210.63
2018-11-11T11:43:06.899Z,2469.38
2018-11-11T11:44:06.847Z,2497.50
2018-11-11T11:45:06.765Z,2458.13
2018-11-11T11:46:06.699Z,2368.13
2018-11-11T11:47:06.631Z,2176.88
2018-11-11T11:48:06.565Z,2075.63
2018-11-11T11:49:06.499Z,2103.75
2018-11-11T11:50:06.566Z,1974.38
2018-11-11T11:51:06.367Z,1822.50
2018-11-11T11:52:06.352Z,1417.50
2018-11-11T11:53:06.236Z,1299.38
2018-11-11T11:54:06.172Z,1406.25
2018-11-11T11:55:06.103Z,1316.25
2018-11-11T11:56:06.038Z,1321.88
2018-11-11T11:57:05.971Z,1243.13
2018-11-11T11:58:05.946Z,1164.38
2018-11-11T11:59:05.837Z,900.00
2018-11-11T12:00:05.774Z,866.25
2018-11-11T12:01:05.707Z,798.75
2018-11-11T12:02:05.684Z,855.00
2018-11-11T12:03:05.570Z,787.50
2018-11-11T12:04:05.506Z,624.38
2018-11-11T12:05:05.438Z,613.13
2018-11-11T12:06:05.369Z,703.13
2018-11-11T12:07:05.551Z,630.00
2018-11-11T12:08:05.234Z,781.88
2018-11-11T12:09:05.262Z,877.50
2018-11-11T12:10:05.097Z,849.38
2018-11-11T12:11:05.029Z,663.75
2018-11-11T12:12:04.961Z,630.00
2018-11-11T12:13:04.892Z,585.00
2018-11-11T12:14:04.824Z,511.88
2018-11-11T12:15:04.756Z,590.63
2018-11-11T12:16:04.685Z,607.50
2018-11-11T12:17:04.646Z,725.63
2018-11-11T12:18:04.549Z,933.75
2018-11-11T12:19:04.479Z,1035.00
2018-11-11T12:20:04.411Z,877.50
2018-11-11T12:21:04.343Z,933.75
2018-11-11T12:22:04.274Z,1029.38
2018-11-11T12:23:04.212Z,1186.88
2018-11-11T12:24:04.133Z,1276.88
2018-11-11T12:25:04.065Z,433.13
2018-11-11T12:26:03.996Z,1018.13
2018-11-11T12:27:03.924Z,967.50
2018-11-11T12:28:03.856Z,1361.25
2018-11-11T12:29:03.787Z,1507.50
2018-11-11T12:30:03.719Z,1130.63
2018-11-11T12:31:03.647Z,714.38
2018-11-11T12:32:03.578Z,483.75
2018-11-11T12:33:03.509Z,1220.63
2018-11-11T12:34:03.441Z,1170.00
2018-11-11T12:35:03.379Z,1260.00
2018-11-11T12:36:03.301Z,1265.63
2018-11-11T12:37:03.231Z,1068.75
2018-11-11T12:38:03.162Z,1226.25
2018-11-11T12:39:03.129Z,1023.75
2018-11-11T12:40:03.262Z,950.63
2018-11-11T12:41:02.955Z,826.88
2018-11-11T12:42:02.886Z,826.88
2018-11-11T12:43:02.814Z,978.75
2018-11-11T12:44:02.745Z,900.00
2018-11-11T12:45:02.677Z,697.50
2018-11-11T12:46:02.607Z,551.25
2018-11-11T12:47:02.561Z,495.00
2018-11-11T12:48:02.467Z,466.88
2018-11-11T12:49:02.414Z,444.38
2018-11-11T12:50:02.336Z,376.88
2018-11-11T12:51:02.259Z,309.38
2018-11-11T12:52:02.191Z,292.50
2018-11-11T12:53:02.119Z,270.00
2018-11-11T12:54:02.050Z,281.25
2018-11-11T12:55:01.979Z,264.38